Time;durP1;ratioP1;P1;durP2;ratioP2;P2;SDS_P1;SDS_P2;PMS_P1;PMS_P2;Temp;Humidity;BMP_temperature;BMP_pressure;BME280_temperature;BME280_humidity;BME280_pressure;Samples;Min_cycle;Max_cycle;Signal;HPM_P1;HPM_P2
2023/03/28 00:00:25;;;;;;;;;;;16.20;40.00;;;;;;5116375;28;20371;-71
2023/03/28 00:02:50;;;;;;;;;;;16.20;40.00;;;;;;5116445;28;19975;-71
2023/03/28 00:05:16;;;;;;;;;;;16.40;40.00;;;;;;5098092;28;20294;-71
2023/03/28 00:07:42;;;;;;;;;;;16.60;39.80;;;;;;5116475;28;19946;-71
2023/03/28 00:10:08;;;;;;;;;;;16.80;39.50;;;;;;5132143;27;19923;-71
2023/03/28 00:12:34;;;;;;;;;;;17.20;39.10;;;;;;5097878;28;19920;-71
2023/03/28 00:15:00;;;;;;;;;;;17.60;38.70;;;;;;5098124;28;20026;-71
2023/03/28 00:17:25;;;;;;;;;;;18.20;37.90;;;;;;5097940;28;19919;-71
2023/03/28 00:19:52;;;;;;;;;;;18.70;37.30;;;;;;5098064;28;19973;-71
2023/03/28 00:22:19;;;;;;;;;;;19.20;36.60;;;;;;5097502;28;19920;-71
2023/03/28 00:24:47;;;;;;;;;;;19.60;35.90;;;;;;5097903;28;19924;-73
2023/03/28 00:27:14;;;;;;;;;;;20.00;35.40;;;;;;5097645;28;19920;-71
2023/03/28 00:29:40;;;;;;;;;;;20.40;34.90;;;;;;5097832;28;20282;-74
2023/03/28 00:32:05;;;;;;;;;;;20.70;34.40;;;;;;5097883;28;19920;-71
2023/03/28 00:34:31;;;;;;;;;;;20.90;34.30;;;;;;5131884;27;20331;-73
2023/03/28 00:36:57;;;;;;;;;;;21.10;33.70;;;;;;5097744;28;20057;-74
2023/03/28 00:39:22;;;;;;;;;;;21.30;33.30;;;;;;5097691;28;20367;-74
2023/03/28 00:41:48;;;;;;;;;;;21.50;33.20;;;;;;5097395;28;19989;-74
2023/03/28 00:44:33;;;;;;;;;;;21.60;33.00;;;;;;5097319;28;20293;-73
2023/03/28 00:46:59;;;;;;;;;;;21.70;33.00;;;;;;5097102;28;19924;-71
2023/03/28 00:49:25;;;;;;;;;;;21.90;32.80;;;;;;5097167;28;19941;-73
2023/03/28 00:51:55;;;;;;;;;;;21.90;32.40;;;;;;5097127;28;19927;-72
2023/03/28 00:54:22;;;;;;;;;;;22.10;32.50;;;;;;5097486;28;19963;-71
2023/03/28 00:56:51;;;;;;;;;;;22.10;32.60;;;;;;5096894;28;19941;-73
2023/03/28 00:59:18;;;;;;;;;;;22.20;32.30;;;;;;5115279;28;19925;-72
2023/03/28 01:01:44;;;;;;;;;;;22.20;32.00;;;;;;5096908;28;20379;-71
2023/03/28 01:04:10;;;;;;;;;;;22.30;32.10;;;;;;5131072;27;19949;-71
2023/03/28 01:06:39;;;;;;;;;;;22.30;31.90;;;;;;5115114;28;19924;-71
2023/03/28 01:09:06;;;;;;;;;;;22.30;32.00;;;;;;5115182;28;19920;-74
2023/03/28 01:11:34;;;;;;;;;;;22.30;31.90;;;;;;5114986;28;20006;-71
2023/03/28 01:14:03;;;;;;;;;;;22.30;31.80;;;;;;5115058;28;19988;-74
2023/03/28 01:16:30;;;;;;;;;;;22.30;32.00;;;;;;5115182;28;19920;-71
2023/03/28 01:19:00;;;;;;;;;;;22.30;31.90;;;;;;5096713;28;19973;-71
2023/03/28 01:21:38;;;;;;;;;;;22.20;31.80;;;;;;5096932;28;19923;-72
2023/03/28 01:24:23;;;;;;;;;;;22.30;32.00;;;;;;5130485;27;19923;-71
2023/03/28 01:26:54;;;;;;;;;;;22.20;31.90;;;;;;5130819;27;20022;-75
2023/03/28 01:34:59;;;;;;;;;;;22.10;31.90;;;;;;5110215;27;19938;-76
2023/03/28 01:51:41;;;;;;;;;;;21.90;32.30;;;;;;5110325;27;19912;-74
2023/03/28 01:54:11;;;;;;;;;;;22.00;32.20;;;;;;5108787;28;20014;-71
2023/03/28 01:56:40;;;;;;;;;;;21.90;32.10;;;;;;5108958;28;19920;-73
2023/03/28 01:59:11;;;;;;;;;;;21.90;32.10;;;;;;5108870;28;20001;-71
2023/03/28 02:01:44;;;;;;;;;;;21.90;32.10;;;;;;5108808;28;19927;-71
2023/03/28 02:04:12;;;;;;;;;;;22.00;32.20;;;;;;5108996;28;19959;-71
2023/03/28 02:06:38;;;;;;;;;;;22.00;32.10;;;;;;5109057;28;19920;-76
2023/03/28 02:09:06;;;;;;;;;;;22.00;32.10;;;;;;5108539;28;19966;-71
2023/03/28 02:11:33;;;;;;;;;;;22.00;32.10;;;;;;5109909;28;19973;-75
2023/03/28 02:14:01;;;;;;;;;;;22.00;31.90;;;;;;5108810;28;19965;-75
2023/03/28 02:16:29;;;;;;;;;;;22.00;32.00;;;;;;5109902;28;20026;-75
2023/03/28 02:18:57;;;;;;;;;;;22.00;32.10;;;;;;5109628;28;19920;-71
2023/03/28 02:21:26;;;;;;;;;;;22.00;32.10;;;;;;5108494;28;19927;-77
2023/03/28 02:23:53;;;;;;;;;;;22.00;32.10;;;;;;5108318;28;19927;-71
2023/03/28 02:26:20;;;;;;;;;;;22.00;31.90;;;;;;5108358;28;19920;-71
2023/03/28 02:28:47;;;;;;;;;;;22.00;32.10;;;;;;5108545;28;20359;-75
2023/03/28 02:31:13;;;;;;;;;;;22.00;32.00;;;;;;5108218;28;19928;-75
2023/03/28 02:33:40;;;;;;;;;;;22.00;32.10;;;;;;5108372;28;20271;-71
2023/03/28 02:41:34;;;;;;;;;;;21.90;31.90;;;;;;5110283;27;19912;-76
2023/03/28 02:44:06;;;;;;;;;;;21.90;32.00;;;;;;5108834;28;19920;-70
2023/03/28 02:46:51;;;;;;;;;;;21.90;32.10;;;;;;5143256;27;19924;-71
2023/03/28 02:49:36;;;;;;;;;;;21.90;32.10;;;;;;5108492;28;19946;-71
2023/03/28 02:52:22;;;;;;;;;;;21.90;32.00;;;;;;5110088;28;19926;-71
2023/03/28 03:00:11;;;;;;;;;;;21.90;32.00;;;;;;5110331;27;19912;-71
2023/03/28 03:02:39;;;;;;;;;;;21.90;32.00;;;;;;5108967;28;19920;-76
2023/03/28 03:05:05;;;;;;;;;;;21.90;32.10;;;;;;5108809;28;19965;-71
2023/03/28 03:07:31;;;;;;;;;;;21.90;32.10;;;;;;5109110;28;20013;-75
2023/03/28 03:09:56;;;;;;;;;;;22.00;32.10;;;;;;5108786;28;19964;-74
2023/03/28 03:12:22;;;;;;;;;;;21.90;32.00;;;;;;5108804;28;19926;-71
2023/03/28 03:14:49;;;;;;;;;;;22.00;32.10;;;;;;5108643;28;19920;-71
2023/03/28 03:17:15;;;;;;;;;;;21.90;32.10;;;;;;5108987;28;19920;-71
2023/03/28 03:19:42;;;;;;;;;;;22.00;32.10;;;;;;5108524;28;19927;-71
2023/03/28 03:22:07;;;;;;;;;;;22.00;32.10;;;;;;5108910;28;20340;-71
2023/03/28 03:24:33;;;;;;;;;;;22.00;32.10;;;;;;5108547;28;19959;-76
2023/03/28 03:26:58;;;;;;;;;;;22.00;31.90;;;;;;5108776;28;19941;-70
2023/03/28 03:29:24;;;;;;;;;;;22.00;31.90;;;;;;5108762;28;19920;-70
2023/03/28 03:31:50;;;;;;;;;;;22.00;32.00;;;;;;5109722;28;19920;-71
2023/03/28 03:34:16;;;;;;;;;;;22.00;32.00;;;;;;5108735;28;19920;-71
2023/03/28 03:36:41;;;;;;;;;;;22.00;31.90;;;;;;5108135;28;20302;-71
2023/03/28 03:39:07;;;;;;;;;;;21.90;31.90;;;;;;5108247;28;20006;-75
2023/03/28 03:41:32;;;;;;;;;;;22.00;32.00;;;;;;5109497;28;19920;-73
2023/03/28 03:43:58;;;;;;;;;;;22.00;31.90;;;;;;5108364;28;19923;-70
2023/03/28 03:46:24;;;;;;;;;;;21.90;31.90;;;;;;5108361;28;20030;-76
2023/03/28 03:48:49;;;;;;;;;;;21.90;31.90;;;;;;5108085;28;19920;-74
2023/03/28 03:51:15;;;;;;;;;;;21.90;31.90;;;;;;5107953;28;19920;-75
2023/03/28 03:53:40;;;;;;;;;;;21.90;31.90;;;;;;5109517;28;19962;-71
2023/03/28 03:56:06;;;;;;;;;;;21.90;31.90;;;;;;5142264;27;20279;-74
2023/03/28 03:58:31;;;;;;;;;;;21.90;31.90;;;;;;5107794;28;19932;-75
2023/03/28 04:00:57;;;;;;;;;;;21.90;32.10;;;;;;5142371;27;19920;-71
2023/03/28 04:03:24;;;;;;;;;;;21.90;32.10;;;;;;5107811;28;19920;-76
2023/03/28 04:05:51;;;;;;;;;;;21.90;32.10;;;;;;5108083;28;20057;-75
2023/03/28 04:08:17;;;;;;;;;;;21.90;32.00;;;;;;5107636;28;20401;-71
2023/03/28 04:10:42;;;;;;;;;;;21.90;32.00;;;;;;5098653;28;19920;-70
2023/03/28 04:13:08;;;;;;;;;;;21.90;32.00;;;;;;5128399;27;19920;-76
2023/03/28 04:15:33;;;;;;;;;;;22.00;32.00;;;;;;5095311;28;20368;-76
2023/03/28 04:17:59;;;;;;;;;;;22.00;32.00;;;;;;5094118;28;19924;-71
2023/03/28 04:20:28;;;;;;;;;;;22.00;31.90;;;;;;5128375;27;19965;-71
2023/03/28 04:22:54;;;;;;;;;;;22.00;31.80;;;;;;5094030;28;19920;-71
2023/03/28 04:25:20;;;;;;;;;;;22.10;31.90;;;;;;5093864;28;20363;-76
2023/03/28 04:27:46;;;;;;;;;;;22.10;31.70;;;;;;5093951;28;19920;-75
2023/03/28 04:30:12;;;;;;;;;;;22.10;31.60;;;;;;5093978;28;19931;-77
2023/03/28 04:32:40;;;;;;;;;;;22.10;31.60;;;;;;5093664;28;19924;-77
2023/03/28 04:35:06;;;;;;;;;;;22.10;31.60;;;;;;5093880;28;19955;-71
2023/03/28 04:37:36;;;;;;;;;;;22.10;31.60;;;;;;5094724;28;20293;-76
2023/03/28 04:40:05;;;;;;;;;;;22.10;31.70;;;;;;5093458;28;19924;-70
2023/03/28 04:42:33;;;;;;;;;;;22.10;31.60;;;;;;5093734;28;20380;-75
2023/03/28 04:44:58;;;;;;;;;;;22.10;31.70;;;;;;5093778;28;19935;-75
2023/03/28 04:47:24;;;;;;;;;;;22.10;31.70;;;;;;5093280;28;20307;-77
2023/03/28 04:49:51;;;;;;;;;;;22.10;31.60;;;;;;5093569;28;19967;-71
2023/03/28 04:52:16;;;;;;;;;;;22.00;31.60;;;;;;5093243;28;19920;-74
2023/03/28 04:54:42;;;;;;;;;;;22.00;31.60;;;;;;5094427;28;20015;-75
2023/03/28 04:57:07;;;;;;;;;;;22.00;31.60;;;;;;5093504;28;20006;-75
2023/03/28 04:59:33;;;;;;;;;;;22.00;31.70;;;;;;5092849;28;19924;-71
2023/03/28 05:01:58;;;;;;;;;;;22.00;31.70;;;;;;5093077;28;19920;-71
2023/03/28 05:04:25;;;;;;;;;;;22.00;31.80;;;;;;5093295;28;19927;-75
2023/03/28 05:06:50;;;;;;;;;;;21.90;31.70;;;;;;5092951;28;20018;-71
2023/03/28 05:09:16;;;;;;;;;;;21.90;31.60;;;;;;5092831;28;20010;-75
2023/03/28 05:11:42;;;;;;;;;;;21.90;31.60;;;;;;5093429;28;19928;-77
2023/03/28 05:14:08;;;;;;;;;;;21.90;31.70;;;;;;5092859;28;20407;-76
2023/03/28 05:16:33;;;;;;;;;;;21.90;31.80;;;;;;5092803;28;19954;-71
2023/03/28 05:19:00;;;;;;;;;;;21.90;31.80;;;;;;5094018;28;20023;-71
2023/03/28 05:21:25;;;;;;;;;;;21.90;31.70;;;;;;5092218;28;19920;-71
2023/03/28 05:23:50;;;;;;;;;;;21.90;31.80;;;;;;5092456;28;20346;-71
2023/03/28 05:26:16;;;;;;;;;;;21.90;31.70;;;;;;5093933;28;19959;-70
2023/03/28 05:28:42;;;;;;;;;;;21.90;31.70;;;;;;5092583;28;20023;-76
2023/03/28 05:31:08;;;;;;;;;;;21.90;31.80;;;;;;5092254;28;19988;-78
2023/03/28 05:33:33;;;;;;;;;;;21.90;31.70;;;;;;5122115;27;19927;-69
2023/03/28 05:36:00;;;;;;;;;;;21.90;32.30;;;;;;5090333;28;19920;-68
2023/03/28 05:38:28;;;;;;;;;;;21.90;32.80;;;;;;5090361;28;20430;-66
2023/03/28 05:40:53;;;;;;;;;;;21.90;32.80;;;;;;5090771;28;19920;-66
2023/03/28 05:43:19;;;;;;;;;;;21.80;33.10;;;;;;5117509;27;19965;-67
2023/03/28 05:45:46;;;;;;;;;;;21.80;33.10;;;;;;5080193;28;20036;-70
2023/03/28 05:48:11;;;;;;;;;;;21.80;33.40;;;;;;5074450;28;19923;-67
2023/03/28 05:50:37;;;;;;;;;;;21.70;33.30;;;;;;5086780;28;20406;-74
2023/03/28 05:53:02;;;;;;;;;;;21.70;33.20;;;;;;5088396;28;19966;-73
2023/03/28 05:55:28;;;;;;;;;;;21.60;32.50;;;;;;5086799;28;20047;-67
2023/03/28 05:57:54;;;;;;;;;;;21.60;33.70;;;;;;5090564;28;19928;-67
2023/03/28 06:00:21;;;;;;;;;;;21.80;33.20;;;;;;5088076;28;19923;-68
2023/03/28 06:02:49;;;;;;;;;;;21.80;33.00;;;;;;5101618;28;19963;-69
2023/03/28 06:05:15;;;;;;;;;;;21.90;32.50;;;;;;5089427;28;19920;-68
2023/03/28 06:07:40;;;;;;;;;;;21.90;32.40;;;;;;5088580;28;19927;-69
2023/03/28 06:10:07;;;;;;;;;;;22.20;32.70;;;;;;5087610;28;19931;-69
2023/03/28 06:12:32;;;;;;;;;;;22.20;32.80;;;;;;5087796;28;19920;-69
2023/03/28 06:14:58;;;;;;;;;;;22.40;32.50;;;;;;5107161;27;19922;-69
2023/03/28 06:17:24;;;;;;;;;;;22.50;32.50;;;;;;5087303;28;19915;-69
2023/03/28 06:19:49;;;;;;;;;;;22.60;32.40;;;;;;5088003;28;19971;-70
2023/03/28 06:22:15;;;;;;;;;;;22.70;32.10;;;;;;5102637;28;19938;-69
2023/03/28 06:24:40;;;;;;;;;;;22.80;32.10;;;;;;5103967;28;19930;-69
2023/03/28 06:27:06;;;;;;;;;;;22.90;32.00;;;;;;5086612;28;19919;-69
2023/03/28 06:29:31;;;;;;;;;;;22.90;32.20;;;;;;5087536;28;19932;-69
2023/03/28 06:31:57;;;;;;;;;;;22.80;32.30;;;;;;5080814;28;19949;-69
2023/03/28 06:34:22;;;;;;;;;;;22.70;32.40;;;;;;5090932;28;19928;-71
2023/03/28 06:36:48;;;;;;;;;;;22.80;32.30;;;;;;5074870;28;20019;-70
2023/03/28 06:39:13;;;;;;;;;;;22.80;32.40;;;;;;5105897;27;20026;-70
2023/03/28 06:41:39;;;;;;;;;;;22.60;32.20;;;;;;5093446;28;19949;-70
2023/03/28 06:44:05;;;;;;;;;;;22.50;32.40;;;;;;5080095;28;19923;-70
2023/03/28 06:46:30;;;;;;;;;;;22.40;33.20;;;;;;5080708;28;20492;-74
2023/03/28 06:48:56;;;;;;;;;;;22.30;33.30;;;;;;5106454;27;20466;-71
2023/03/28 06:51:22;;;;;;;;;;;22.20;33.50;;;;;;5071796;28;19934;-72
2023/03/28 06:53:47;;;;;;;;;;;22.10;33.50;;;;;;5075837;28;19924;-72
2023/03/28 06:56:13;;;;;;;;;;;21.90;33.10;;;;;;5074298;28;20599;-72
2023/03/28 06:58:38;;;;;;;;;;;21.80;32.80;;;;;;5093128;28;19978;-71
2023/03/28 07:01:04;;;;;;;;;;;21.60;32.60;;;;;;5085561;28;19963;-77
2023/03/28 07:03:30;;;;;;;;;;;21.60;33.10;;;;;;5089709;28;19942;-69
2023/03/28 07:05:56;;;;;;;;;;;21.70;33.80;;;;;;5075099;28;19934;-67
2023/03/28 07:08:21;;;;;;;;;;;22.00;33.80;;;;;;5073866;28;19973;-68
2023/03/28 07:10:47;;;;;;;;;;;22.30;33.80;;;;;;5092196;28;19971;-72
2023/03/28 07:13:13;;;;;;;;;;;22.60;33.60;;;;;;5072869;28;19927;-74
2023/03/28 07:15:38;;;;;;;;;;;22.80;33.40;;;;;;5071788;28;19927;-73
2023/03/28 07:18:04;;;;;;;;;;;23.00;33.20;;;;;;5076646;28;19920;-71
2023/03/28 07:20:30;;;;;;;;;;;23.10;33.10;;;;;;5080804;28;19924;-71
2023/03/28 07:22:56;;;;;;;;;;;23.20;32.90;;;;;;5075760;28;19949;-71
2023/03/28 07:25:22;;;;;;;;;;;23.10;33.00;;;;;;5075614;28;19927;-74
2023/03/28 07:27:47;;;;;;;;;;;23.00;33.00;;;;;;5079966;28;19955;-70
2023/03/28 07:30:13;;;;;;;;;;;22.90;33.20;;;;;;5081489;28;20425;-71
2023/03/28 07:32:39;;;;;;;;;;;22.80;33.40;;;;;;5078721;28;19934;-70
2023/03/28 07:35:05;;;;;;;;;;;22.60;33.60;;;;;;5094992;28;19923;-72
2023/03/28 07:37:32;;;;;;;;;;;22.50;33.80;;;;;;5107514;27;20027;-69
2023/03/28 07:39:59;;;;;;;;;;;22.30;34.20;;;;;;5097679;28;19924;-78
2023/03/28 07:42:25;;;;;;;;;;;22.20;34.50;;;;;;5078668;28;19955;-69
2023/03/28 07:44:51;;;;;;;;;;;22.00;34.70;;;;;;5076348;28;19973;-71
2023/03/28 07:47:17;;;;;;;;;;;21.90;35.00;;;;;;5115997;27;19927;-79
2023/03/28 07:49:44;;;;;;;;;;;21.80;35.20;;;;;;5080152;28;20351;-78
2023/03/28 07:52:10;;;;;;;;;;;21.60;35.40;;;;;;5115294;27;20928;-69
2023/03/28 07:54:36;;;;;;;;;;;21.50;35.50;;;;;;5077098;28;19920;-72
2023/03/28 07:57:02;;;;;;;;;;;21.50;36.00;;;;;;5076825;28;19985;-68
2023/03/28 07:59:27;;;;;;;;;;;21.50;36.10;;;;;;5078433;28;19928;-78
2023/03/28 08:01:53;;;;;;;;;;;21.50;35.80;;;;;;5079729;28;19924;-75
2023/03/28 08:04:19;;;;;;;;;;;21.70;36.00;;;;;;5081167;28;19955;-73
2023/03/28 08:06:44;;;;;;;;;;;21.80;35.80;;;;;;5080755;28;19931;-75
2023/03/28 08:09:12;;;;;;;;;;;21.80;35.90;;;;;;5077228;28;19923;-71
2023/03/28 08:11:38;;;;;;;;;;;21.80;35.70;;;;;;5078071;28;20374;-73
2023/03/28 08:14:04;;;;;;;;;;;21.80;35.70;;;;;;5080919;28;19946;-72
2023/03/28 08:16:30;;;;;;;;;;;21.90;35.80;;;;;;5079877;28;20383;-75
2023/03/28 08:18:55;;;;;;;;;;;21.90;35.80;;;;;;5081957;28;19932;-75
2023/03/28 08:21:21;;;;;;;;;;;21.90;35.80;;;;;;5080610;28;19948;-70
2023/03/28 08:23:47;;;;;;;;;;;21.80;35.50;;;;;;5079778;28;19931;-72
2023/03/28 08:26:12;;;;;;;;;;;21.80;35.90;;;;;;5078062;28;19924;-77
2023/03/28 08:28:38;;;;;;;;;;;21.80;35.90;;;;;;5080004;28;19924;-77
2023/03/28 08:31:13;;;;;;;;;;;21.90;35.90;;;;;;5096575;28;20486;-73
2023/03/28 08:33:40;;;;;;;;;;;22.00;35.70;;;;;;5077663;28;19924;-73
2023/03/28 08:36:06;;;;;;;;;;;22.00;35.00;;;;;;5078195;28;19964;-73
2023/03/28 08:38:31;;;;;;;;;;;21.90;34.70;;;;;;5098795;28;19975;-73
2023/03/28 08:41:02;;;;;;;;;;;21.80;34.80;;;;;;5079312;28;20386;-72
2023/03/28 08:46:24;;;;;;;;;;;21.50;35.00;;;;;;5080238;27;19939;-70
2023/03/28 08:48:51;;;;;;;;;;;21.40;35.20;;;;;;5078549;28;19920;-70
2023/03/28 08:51:35;;;;;;;;;;;21.40;34.90;;;;;;5059328;28;19933;-71
2023/03/28 08:54:19;;;;;;;;;;;21.50;35.20;;;;;;5064463;28;19924;-72
2023/03/28 08:56:47;;;;;;;;;;;21.50;35.40;;;;;;5062162;28;20542;-68
2023/03/28 08:59:14;;;;;;;;;;;21.70;35.60;;;;;;5081412;28;19924;-70
2023/03/28 09:01:40;;;;;;;;;;;21.90;35.50;;;;;;5080332;28;19924;-79
2023/03/28 09:04:05;;;;;;;;;;;22.00;35.40;;;;;;5063915;28;20617;-75
2023/03/28 09:06:38;;;;;;;;;;;22.10;35.30;;;;;;5063911;28;19935;-72
2023/03/28 09:17:33;;;;;;;;;;;22.30;35.20;;;;;;5087880;27;19920;-72
2023/03/28 09:25:23;;;;;;;;;;;22.10;35.40;;;;;;5090481;27;19916;-78
2023/03/28 09:28:08;;;;;;;;;;;22.10;35.70;;;;;;5076074;28;20435;-75
2023/03/28 09:30:40;;;;;;;;;;;22.00;35.70;;;;;;5078553;28;19928;-71
2023/03/28 09:33:09;;;;;;;;;;;21.90;35.90;;;;;;5111147;27;19935;-74
2023/03/28 09:35:35;;;;;;;;;;;21.80;36.00;;;;;;5103936;27;20445;-69
2023/03/28 09:38:04;;;;;;;;;;;21.80;36.20;;;;;;5072904;28;19924;-72
2023/03/28 09:40:30;;;;;;;;;;;21.80;36.30;;;;;;5077035;28;19925;-70
2023/03/28 09:43:16;;;;;;;;;;;21.70;36.10;;;;;;5073740;28;19924;-73
2023/03/28 09:46:01;;;;;;;;;;;21.60;36.40;;;;;;5077760;28;19925;-69
2023/03/28 09:48:28;;;;;;;;;;;21.60;36.50;;;;;;5077422;28;19928;-70
2023/03/28 09:50:55;;;;;;;;;;;21.50;34.90;;;;;;5074617;28;19924;-71
2023/03/28 09:53:22;;;;;;;;;;;21.40;35.70;;;;;;5069989;28;20011;-73
2023/03/28 09:55:48;;;;;;;;;;;21.30;34.40;;;;;;5070327;28;19943;-76
2023/03/28 09:58:14;;;;;;;;;;;21.20;35.60;;;;;;5104658;27;19925;-76
2023/03/28 10:00:41;;;;;;;;;;;21.20;35.50;;;;;;5075230;28;20006;-73
2023/03/28 10:03:21;;;;;;;;;;;21.20;35.80;;;;;;5100466;27;19925;-70
2023/03/28 10:05:48;;;;;;;;;;;21.30;36.20;;;;;;5072477;28;20011;-67
2023/03/28 10:08:21;;;;;;;;;;;21.30;36.30;;;;;;5077259;28;20370;-67
2023/03/28 10:10:55;;;;;;;;;;;21.40;36.50;;;;;;5106182;27;19963;-74
2023/03/28 10:13:22;;;;;;;;;;;21.50;36.50;;;;;;5073585;28;19933;-69
2023/03/28 10:15:48;;;;;;;;;;;21.60;36.60;;;;;;5074455;28;19928;-71
2023/03/28 10:18:16;;;;;;;;;;;21.70;36.40;;;;;;5071551;28;19924;-70
2023/03/28 10:20:42;;;;;;;;;;;21.80;36.40;;;;;;5081404;28;20300;-67
2023/03/28 10:23:10;;;;;;;;;;;21.90;36.30;;;;;;5079968;28;19928;-68
2023/03/28 10:25:43;;;;;;;;;;;21.90;33.70;;;;;;5113368;27;20006;-66
2023/03/28 10:28:14;;;;;;;;;;;21.70;32.30;;;;;;5076660;28;19924;-65
2023/03/28 10:30:40;;;;;;;;;;;21.50;33.20;;;;;;5077026;28;19970;-66
2023/03/28 10:33:25;;;;;;;;;;;21.50;32.80;;;;;;5090110;28;19969;-70
2023/03/28 10:35:56;;;;;;;;;;;21.40;32.50;;;;;;5085034;28;20059;-71
2023/03/28 10:38:22;;;;;;;;;;;21.40;33.20;;;;;;5062809;28;19935;-72
2023/03/28 10:40:56;;;;;;;;;;;21.50;32.30;;;;;;5064800;28;19929;-73
2023/03/28 10:43:29;;;;;;;;;;;21.50;32.50;;;;;;5064443;28;20338;-69
2023/03/28 10:45:58;;;;;;;;;;;21.50;32.20;;;;;;5096737;27;19928;-69
2023/03/28 10:48:25;;;;;;;;;;;21.50;31.20;;;;;;5060484;28;19924;-70
2023/03/28 10:50:53;;;;;;;;;;;21.60;31.50;;;;;;5097623;27;20032;-69
2023/03/28 10:56:26;;;;;;;;;;;21.90;32.10;;;;;;5091778;27;21978;-70
2023/03/28 10:58:59;;;;;;;;;;;22.10;32.30;;;;;;5081564;28;19928;-68
2023/03/28 11:01:30;;;;;;;;;;;22.30;32.70;;;;;;5079501;28;20011;-73
2023/03/28 11:04:01;;;;;;;;;;;22.50;32.40;;;;;;5076457;28;19944;-68
2023/03/28 11:06:34;;;;;;;;;;;22.60;32.20;;;;;;5081221;28;19966;-69
2023/03/28 11:14:41;;;;;;;;;;;22.50;32.60;;;;;;5089618;27;19970;-68
2023/03/28 11:20:09;;;;;;;;;;;22.40;32.90;;;;;;5080530;27;19916;-72
2023/03/28 11:22:55;;;;;;;;;;;22.30;33.10;;;;;;5057816;28;19982;-68
2023/03/28 11:25:34;;;;;;;;;;;22.10;33.30;;;;;;5078890;28;20268;-71
2023/03/28 11:28:11;;;;;;;;;;;22.10;33.60;;;;;;5080741;28;19920;-73
2023/03/28 11:30:38;;;;;;;;;;;21.90;33.70;;;;;;5067098;28;20562;-69
2023/03/28 11:33:12;;;;;;;;;;;21.90;34.00;;;;;;5059242;28;19928;-69
2023/03/28 11:35:39;;;;;;;;;;;21.80;34.30;;;;;;5054429;28;19974;-70
2023/03/28 11:38:15;;;;;;;;;;;21.70;34.30;;;;;;5060268;28;19948;-69
2023/03/28 11:43:40;;;;;;;;;;;21.60;34.00;;;;;;5093018;27;19948;-67
2023/03/28 11:46:08;;;;;;;;;;;21.50;33.60;;;;;;5115610;27;20019;-71
2023/03/28 11:48:54;;;;;;;;;;;21.40;33.70;;;;;;5085850;28;19981;-71
2023/03/28 11:51:24;;;;;;;;;;;21.30;33.60;;;;;;5087983;28;19925;-69
2023/03/28 11:54:10;;;;;;;;;;;21.20;33.70;;;;;;5088365;28;20411;-68
2023/03/28 12:02:17;;;;;;;;;;;21.30;33.90;;;;;;5067861;27;19924;-68
2023/03/28 12:04:47;;;;;;;;;;;21.30;34.40;;;;;;5072882;28;19931;-68
2023/03/28 12:10:30;;;;;;;;;;;21.60;34.20;;;;;;5089865;27;20307;-68
2023/03/28 12:15:58;;;;;;;;;;;21.90;33.90;;;;;;5070320;28;19927;-67
2023/03/28 12:18:41;;;;;;;;;;;22.00;33.80;;;;;;5067221;28;19951;-71
2023/03/28 12:21:10;;;;;;;;;;;22.10;33.80;;;;;;5062267;28;19931;-70
2023/03/28 12:23:38;;;;;;;;;;;22.20;33.80;;;;;;5066943;28;20307;-69
2023/03/28 12:26:13;;;;;;;;;;;22.20;33.80;;;;;;5057705;28;19925;-68
2023/03/28 12:28:40;;;;;;;;;;;22.20;33.90;;;;;;5061963;28;19925;-69
2023/03/28 12:31:18;;;;;;;;;;;22.30;34.10;;;;;;5055990;28;20412;-68
2023/03/28 12:34:05;;;;;;;;;;;22.30;34.10;;;;;;5075902;28;20723;-69
2023/03/28 12:36:34;;;;;;;;;;;22.20;34.20;;;;;;5059479;28;19931;-69
2023/03/28 12:39:20;;;;;;;;;;;22.30;34.40;;;;;;5059885;28;19935;-73
2023/03/28 12:41:46;;;;;;;;;;;22.20;34.50;;;;;;5049441;28;19928;-74
2023/03/28 12:44:14;;;;;;;;;;;22.10;34.60;;;;;;5057912;28;19925;-73
2023/03/28 12:46:44;;;;;;;;;;;22.10;34.80;;;;;;5056377;28;20012;-72
2023/03/28 12:49:13;;;;;;;;;;;22.00;35.00;;;;;;5060112;28;21683;-72
2023/03/28 12:51:41;;;;;;;;;;;22.00;35.10;;;;;;5057029;28;19931;-69
2023/03/28 12:54:21;;;;;;;;;;;21.90;35.20;;;;;;5061124;28;20023;-70
2023/03/28 12:56:57;;;;;;;;;;;21.90;35.30;;;;;;5053465;28;19921;-71
2023/03/28 12:59:35;;;;;;;;;;;21.90;35.50;;;;;;5055247;28;19931;-73
2023/03/28 13:02:07;;;;;;;;;;;21.80;35.60;;;;;;5062363;28;19932;-70
2023/03/28 13:04:41;;;;;;;;;;;21.80;35.60;;;;;;5069488;28;19920;-70
2023/03/28 13:09:54;;;;;;;;;;;21.80;35.90;;;;;;5090912;27;19916;-70
2023/03/28 13:12:40;;;;;;;;;;;21.80;35.90;;;;;;5090224;28;20473;-70
2023/03/28 13:18:12;;;;;;;;;;;21.80;36.00;;;;;;5103704;27;19916;-67
2023/03/28 13:20:46;;;;;;;;;;;21.80;33.90;;;;;;5091239;28;20566;-70
2023/03/28 13:23:16;;;;;;;;;;;21.70;34.70;;;;;;5082391;28;20563;-69
2023/03/28 13:25:43;;;;;;;;;;;21.60;34.60;;;;;;5090743;28;19946;-70
2023/03/28 13:31:07;;;;;;;;;;;21.60;33.00;;;;;;5102599;27;20421;-71
2023/03/28 13:33:33;;;;;;;;;;;21.40;32.90;;;;;;5089504;28;19928;-70
2023/03/28 13:38:49;;;;;;;;;;;21.20;33.10;;;;;;5082877;28;19930;-71
2023/03/28 13:44:12;;;;;;;;;;;21.30;32.80;;;;;;5103681;27;19916;-70
2023/03/28 13:46:40;;;;;;;;;;;21.40;32.40;;;;;;5082974;28;19927;-70
2023/03/28 13:54:31;;;;;;;;;;;21.80;31.20;;;;;;5110617;27;20467;-70
2023/03/28 13:57:02;;;;;;;;;;;22.00;30.90;;;;;;5103022;28;19927;-70
2023/03/28 13:59:33;;;;;;;;;;;22.10;29.70;;;;;;5081809;28;19921;-70
2023/03/28 14:01:59;;;;;;;;;;;22.10;30.30;;;;;;5079741;28;20536;-70
2023/03/28 14:04:26;;;;;;;;;;;22.30;29.80;;;;;;5098268;28;19932;-70
2023/03/28 14:06:53;;;;;;;;;;;22.30;28.80;;;;;;5091356;28;19977;-70
2023/03/28 14:09:20;;;;;;;;;;;22.30;29.30;;;;;;5097056;28;20303;-70
2023/03/28 14:11:46;;;;;;;;;;;22.30;29.10;;;;;;5101231;28;19920;-68
2023/03/28 14:14:15;;;;;;;;;;;22.30;29.30;;;;;;5101129;28;20027;-67
2023/03/28 14:16:42;;;;;;;;;;;22.30;29.10;;;;;;5100041;28;20474;-70
2023/03/28 14:19:11;;;;;;;;;;;22.20;29.30;;;;;;5096386;28;19923;-71
2023/03/28 14:21:37;;;;;;;;;;;22.10;29.50;;;;;;5090717;28;19928;-71
2023/03/28 14:24:04;;;;;;;;;;;22.10;29.80;;;;;;5079900;28;20192;-70
2023/03/28 14:26:33;;;;;;;;;;;22.00;30.00;;;;;;5072883;28;19925;-70
2023/03/28 14:29:01;;;;;;;;;;;22.00;30.10;;;;;;5076844;28;19924;-70
2023/03/28 14:34:12;;;;;;;;;;;22.00;30.40;;;;;;5065953;28;19917;-70
2023/03/28 14:36:57;;;;;;;;;;;21.90;30.50;;;;;;5065112;28;19974;-71
2023/03/28 14:39:23;;;;;;;;;;;21.80;30.70;;;;;;5091272;28;19920;-71
2023/03/28 14:41:49;;;;;;;;;;;21.70;30.70;;;;;;5102974;28;20018;-71
2023/03/28 14:44:15;;;;;;;;;;;21.60;30.90;;;;;;5074144;28;20004;-71
2023/03/28 14:46:42;;;;;;;;;;;21.50;31.10;;;;;;5065843;28;20414;-70
2023/03/28 14:49:14;;;;;;;;;;;21.40;31.20;;;;;;5066223;28;20021;-70
2023/03/28 14:51:41;;;;;;;;;;;21.30;31.40;;;;;;5063492;28;19921;-71
2023/03/28 14:54:11;;;;;;;;;;;21.20;31.50;;;;;;5071462;28;20442;-71
2023/03/28 14:56:36;;;;;;;;;;;21.10;31.70;;;;;;5063310;28;19967;-71
2023/03/28 14:59:02;;;;;;;;;;;21.00;31.80;;;;;;5062987;28;19960;-71
2023/03/28 15:01:29;;;;;;;;;;;20.90;31.90;;;;;;5063189;28;19964;-71
2023/03/28 15:03:57;;;;;;;;;;;20.80;32.10;;;;;;5063678;28;19925;-70
2023/03/28 15:06:23;;;;;;;;;;;20.80;32.30;;;;;;5063046;28;19956;-71
2023/03/28 15:08:48;;;;;;;;;;;20.70;32.40;;;;;;5063086;28;19975;-70
2023/03/28 15:11:32;;;;;;;;;;;20.60;32.50;;;;;;5064211;28;19975;-76
2023/03/28 15:14:00;;;;;;;;;;;20.50;32.60;;;;;;5064836;28;19924;-71
2023/03/28 15:16:26;;;;;;;;;;;20.40;32.80;;;;;;5065353;28;19927;-70
2023/03/28 15:18:57;;;;;;;;;;;20.30;32.90;;;;;;5064133;28;19927;-76
2023/03/28 15:21:23;;;;;;;;;;;20.30;33.00;;;;;;5065751;28;19927;-75
2023/03/28 15:23:52;;;;;;;;;;;20.20;33.10;;;;;;5065722;28;19925;-70
2023/03/28 15:26:21;;;;;;;;;;;20.20;33.90;;;;;;5066716;28;19921;-70
2023/03/28 15:28:47;;;;;;;;;;;20.10;33.20;;;;;;5064348;28;20303;-70
2023/03/28 15:31:14;;;;;;;;;;;20.10;33.30;;;;;;5064671;28;19927;-70
2023/03/28 15:33:43;;;;;;;;;;;20.10;33.40;;;;;;5047797;28;19974;-70
2023/03/28 15:36:11;;;;;;;;;;;20.10;33.40;;;;;;5063058;28;19927;-70
2023/03/28 15:38:38;;;;;;;;;;;20.00;33.50;;;;;;5066641;28;19920;-70
2023/03/28 15:46:36;;;;;;;;;;;19.90;33.70;;;;;;5129170;27;19916;-70
2023/03/28 15:49:02;;;;;;;;;;;19.90;33.80;;;;;;5127835;28;20252;-71
2023/03/28 15:51:28;;;;;;;;;;;19.80;33.80;;;;;;5126978;28;20375;-71
2023/03/28 15:53:54;;;;;;;;;;;19.80;33.90;;;;;;5127803;28;20398;-71
2023/03/28 15:59:01;;;;;;;;;;;19.70;34.10;;;;;;5107713;27;20429;-70
2023/03/28 16:04:20;;;;;;;;;;;19.60;34.20;;;;;;5087534;28;19912;-71
2023/03/28 16:06:45;;;;;;;;;;;19.50;34.20;;;;;;5087826;28;19920;-70
2023/03/28 16:11:58;;;;;;;;;;;19.50;34.40;;;;;;5087529;28;19964;-71